createdAt,value
2017-11-04T00:02:40.081Z,5.80
2017-11-04T00:06:07.253Z,6.17
2017-11-04T00:09:34.709Z,6.73
2017-11-04T00:13:02.114Z,7.20
2017-11-04T00:16:29.563Z,6.87
2017-11-04T00:19:56.438Z,6.10
2017-11-04T00:23:26.103Z,6.37
2017-11-04T00:26:53.748Z,6.90
2017-11-04T00:30:22.748Z,6.30
2017-11-04T00:33:51.088Z,6.57
2017-11-04T00:37:17.691Z,6.60
2017-11-04T00:40:44.240Z,6.83
2017-11-04T00:44:10.795Z,5.07
2017-11-04T00:47:37.775Z,6.50
2017-11-04T00:51:06.110Z,6.00
2017-11-04T00:54:35.271Z,6.27
2017-11-04T00:58:02.680Z,6.53
2017-11-04T01:01:29.848Z,6.37
2017-11-04T01:04:56.898Z,5.10
2017-11-04T01:08:24.351Z,5.93
2017-11-04T01:11:51.297Z,6.17
2017-11-04T01:15:17.775Z,5.70
2017-11-04T01:18:46.207Z,6.33
2017-11-04T01:22:12.933Z,5.70
2017-11-04T01:25:39.606Z,6.30
2017-11-04T01:29:06.722Z,6.67
2017-11-04T01:32:33.348Z,6.10
2017-11-04T01:35:59.814Z,6.10
2017-11-04T01:39:26.271Z,6.67
2017-11-04T01:42:53.117Z,5.80
2017-11-04T01:46:19.540Z,6.63
2017-11-04T01:49:46.339Z,5.80
2017-11-04T01:53:18.591Z,5.50
2017-11-04T01:56:46.155Z,5.73
2017-11-04T02:00:13.676Z,6.80
2017-11-04T02:03:40.033Z,6.17
2017-11-04T02:07:07.299Z,6.23
2017-11-04T02:10:34.951Z,4.73
2017-11-04T02:14:02.339Z,6.20
2017-11-04T02:17:32.607Z,6.27
2017-11-04T02:21:01.522Z,6.60
2017-11-04T02:24:31.484Z,6.67
2017-11-04T02:28:01.525Z,6.40
2017-11-04T02:31:30.470Z,5.60
2017-11-04T02:34:59.856Z,6.30
2017-11-04T02:38:33.762Z,6.23
2017-11-04T02:42:03.839Z,5.60
2017-11-04T02:45:34.505Z,5.90
2017-11-04T02:49:02.692Z,6.80
2017-11-04T02:52:32.615Z,6.30
2017-11-04T02:56:03.625Z,6.10
2017-11-04T02:59:35.306Z,6.80
2017-11-04T03:03:07.115Z,6.03
2017-11-04T03:06:35.771Z,6.43
2017-11-04T03:13:44.112Z,5.60
2017-11-04T03:17:14.748Z,6.00
2017-11-04T03:20:44.559Z,6.27
2017-11-04T03:24:14.738Z,6.40
2017-11-04T03:27:45.776Z,6.30
2017-11-04T03:31:17.860Z,6.20
2017-11-04T03:34:49.573Z,6.13
2017-11-04T03:38:19.005Z,6.23
2017-11-04T03:41:48.118Z,6.07
2017-11-04T03:45:20.715Z,6.60
2017-11-04T03:48:49.873Z,6.50
2017-11-04T03:52:18.199Z,6.10
2017-11-04T03:55:47.882Z,6.60
2017-11-04T03:59:20.172Z,6.73
2017-11-04T04:02:48.478Z,6.33
2017-11-04T04:06:17.468Z,6.10
2017-11-04T04:09:45.215Z,6.30
2017-11-04T04:13:11.852Z,5.53
2017-11-04T04:16:39.102Z,5.23
2017-11-04T04:20:05.274Z,6.17
2017-11-04T04:23:32.072Z,6.23
2017-11-04T04:26:59.001Z,5.93
2017-11-04T04:30:27.179Z,5.70
2017-11-04T04:33:54.923Z,5.50
2017-11-04T04:37:21.618Z,6.07
2017-11-04T04:40:48.172Z,5.37
2017-11-04T04:44:15.895Z,6.57
2017-11-04T04:47:42.681Z,5.47
2017-11-04T04:51:10.156Z,6.00
2017-11-04T04:54:37.294Z,6.90
2017-11-04T04:58:04.403Z,6.57
2017-11-04T05:01:31.699Z,6.50
2017-11-04T05:04:59.842Z,5.90
2017-11-04T05:08:26.629Z,6.77
2017-11-04T05:11:53.439Z,6.57
2017-11-04T05:15:20.499Z,5.83
2017-11-04T05:18:46.950Z,6.23
2017-11-04T05:22:14.875Z,5.63
2017-11-04T05:25:41.941Z,5.70
2017-11-04T05:29:07.910Z,6.80
2017-11-04T05:32:35.410Z,6.20
2017-11-04T05:36:05.987Z,6.40
2017-11-04T05:39:32.867Z,5.80
2017-11-04T05:43:00.367Z,5.30
2017-11-04T05:46:27.162Z,6.20
2017-11-04T05:49:54.261Z,5.90
2017-11-04T05:53:22.531Z,5.70
2017-11-04T05:56:49.225Z,6.53
2017-11-04T06:00:15.805Z,6.73
2017-11-04T06:03:43.620Z,6.80
2017-11-04T06:07:10.687Z,6.50
2017-11-04T06:10:37.391Z,5.87
2017-11-04T06:14:05.069Z,6.07
2017-11-04T06:17:32.668Z,7.50
2017-11-04T06:20:59.299Z,6.47
2017-11-04T06:24:26.246Z,6.40
2017-11-04T06:27:52.822Z,6.00
2017-11-04T06:31:19.232Z,7.13
2017-11-04T06:34:45.779Z,6.70
2017-11-04T06:38:12.947Z,5.33
2017-11-04T06:41:39.941Z,6.50
2017-11-04T06:45:07.239Z,7.03
2017-11-04T06:48:34.042Z,6.00
2017-11-04T06:52:01.314Z,6.30
2017-11-04T06:55:29.345Z,6.33
2017-11-04T06:58:55.916Z,6.70
2017-11-04T07:02:22.711Z,5.40
2017-11-04T07:05:49.223Z,5.53
2017-11-04T07:09:15.961Z,6.50
2017-11-04T07:12:42.648Z,6.40
2017-11-04T07:16:08.950Z,4.93
2017-11-04T07:19:36.202Z,5.63
2017-11-04T07:23:02.646Z,5.30
2017-11-04T07:26:29.223Z,5.10
2017-11-04T07:29:55.735Z,5.70
2017-11-04T07:33:22.195Z,6.13
2017-11-04T07:36:49.665Z,6.00
2017-11-04T07:40:16.408Z,6.63
2017-11-04T07:43:46.368Z,5.00
2017-11-04T07:47:13.745Z,6.30
2017-11-04T07:50:40.007Z,6.10
2017-11-04T07:54:09.810Z,5.57
2017-11-04T07:57:36.870Z,6.77
2017-11-04T08:01:04.709Z,6.77
2017-11-04T08:04:31.359Z,6.57
2017-11-04T08:08:06.186Z,7.10
2017-11-04T08:11:37.456Z,6.30
2017-11-04T08:15:08.550Z,5.20
2017-11-04T08:18:34.999Z,5.97
2017-11-04T08:22:05.936Z,4.90
2017-11-04T08:25:32.337Z,4.90
2017-11-04T08:28:59.323Z,4.70
2017-11-04T08:32:26.649Z,5.57
2017-11-04T08:35:54.054Z,5.00
2017-11-04T08:39:20.814Z,4.70
2017-11-04T08:42:47.965Z,4.80
2017-11-04T08:49:51.782Z,4.77
2017-11-04T08:53:18.846Z,5.00
2017-11-04T08:56:45.397Z,5.07
2017-11-04T09:00:11.851Z,5.17
2017-11-04T09:03:42.758Z,5.90
2017-11-04T09:07:13.306Z,5.07
2017-11-04T09:10:39.531Z,5.50
2017-11-04T09:14:07.339Z,6.13
2017-11-04T09:17:33.880Z,6.53
2017-11-04T09:21:00.510Z,5.80
2017-11-04T09:24:32.934Z,6.20
2017-11-04T09:27:59.556Z,6.90
2017-11-04T09:31:27.355Z,6.10
2017-11-04T09:34:54.407Z,6.37
2017-11-04T09:38:21.971Z,6.57
2017-11-04T09:41:53.115Z,5.70
2017-11-04T09:45:20.082Z,6.03
2017-11-04T09:48:47.469Z,6.70
2017-11-04T09:52:14.848Z,5.70
2017-11-04T09:59:13.700Z,6.47
2017-11-04T10:02:45.178Z,6.97
2017-11-04T10:06:13.603Z,6.60
2017-11-04T10:09:46.658Z,5.70
2017-11-04T10:13:12.782Z,6.67
2017-11-04T10:16:39.645Z,6.90
2017-11-04T10:20:09.638Z,6.30
2017-11-04T10:23:36.246Z,5.50
2017-11-04T10:27:12.588Z,6.23
2017-11-04T10:30:38.607Z,5.50
2017-11-04T10:34:06.731Z,5.30
2017-11-04T10:37:35.096Z,6.13
2017-11-04T10:41:02.491Z,5.80
2017-11-04T10:48:00.196Z,5.93
2017-11-04T10:51:27.000Z,5.73
2017-11-04T10:54:54.986Z,6.47
2017-11-04T10:58:26.432Z,5.60
2017-11-04T11:01:53.666Z,5.53
2017-11-04T11:05:21.643Z,6.07
2017-11-04T11:08:47.595Z,6.83
2017-11-04T11:12:15.408Z,7.40
2017-11-04T11:15:43.413Z,7.10
2017-11-04T11:19:22.840Z,7.47
2017-11-04T11:22:50.891Z,7.93
2017-11-04T11:26:17.713Z,8.57
2017-11-04T11:29:48.978Z,9.37
2017-11-04T11:33:16.186Z,7.57
2017-11-04T11:36:42.412Z,6.93
2017-11-04T11:40:08.387Z,7.00
2017-11-04T11:43:35.857Z,16.17
2017-11-04T11:47:02.857Z,11.27
2017-11-04T11:50:29.694Z,13.20
2017-11-04T11:53:57.156Z,19.77
2017-11-04T11:57:24.562Z,15.60
2017-11-04T12:00:58.898Z,16.17
2017-11-04T12:04:29.426Z,14.10
2017-11-04T12:12:18.773Z,12.73
2017-11-04T12:16:11.206Z,12.87
2017-11-04T12:19:54.535Z,11.80
2017-11-04T12:23:22.085Z,10.17
2017-11-04T12:26:49.200Z,9.40
2017-11-04T12:30:15.765Z,10.17
2017-11-04T12:33:55.397Z,9.77
2017-11-04T12:37:22.094Z,10.03
2017-11-04T12:40:48.633Z,8.90
2017-11-04T12:44:15.604Z,9.20
2017-11-04T12:47:44.699Z,9.27
2017-11-04T12:51:11.478Z,9.73
2017-11-04T12:54:39.245Z,8.10
2017-11-04T12:58:05.301Z,8.13
2017-11-04T13:01:31.854Z,8.77
2017-11-04T13:05:05.842Z,8.40
2017-11-04T13:08:32.676Z,8.57
2017-11-04T13:11:59.583Z,9.60
2017-11-04T13:15:27.284Z,8.67
2017-11-04T13:18:53.955Z,9.63
2017-11-04T13:22:20.990Z,8.50
2017-11-04T13:25:47.889Z,9.80
2017-11-04T13:29:14.540Z,9.30
2017-11-04T13:32:41.329Z,9.33
2017-11-04T13:36:07.276Z,9.77
2017-11-04T13:39:34.057Z,9.67
2017-11-04T13:43:00.561Z,8.87
2017-11-04T13:46:27.875Z,8.33
2017-11-04T13:49:58.534Z,8.70
2017-11-04T13:53:25.306Z,9.83
2017-11-04T13:56:56.313Z,9.00
2017-11-04T14:00:32.226Z,8.47
2017-11-04T14:03:59.168Z,9.20
2017-11-04T14:07:29.601Z,9.20
2017-11-04T14:10:56.083Z,9.33
2017-11-04T14:14:23.351Z,8.73
2017-11-04T14:17:49.315Z,9.10
2017-11-04T14:21:21.171Z,8.37
2017-11-04T14:24:50.677Z,9.17
2017-11-04T14:28:20.589Z,8.20
2017-11-04T14:31:47.164Z,8.57
2017-11-04T14:35:13.826Z,8.93
2017-11-04T14:38:49.394Z,8.40
2017-11-04T14:42:16.032Z,8.00
2017-11-04T14:45:48.955Z,9.03
2017-11-04T14:49:16.309Z,7.53
2017-11-04T14:52:43.815Z,7.23
2017-11-04T14:56:15.198Z,8.10
2017-11-04T14:59:45.182Z,7.53
2017-11-04T15:03:12.919Z,7.83
2017-11-04T15:06:40.830Z,8.60
2017-11-04T15:10:08.185Z,7.63
2017-11-04T15:13:34.764Z,7.77
2017-11-04T15:17:01.936Z,7.30
2017-11-04T15:20:28.497Z,7.67
2017-11-04T15:23:55.151Z,6.87
2017-11-04T15:30:57.624Z,7.53
2017-11-04T15:34:26.073Z,7.23
2017-11-04T15:37:53.002Z,7.30
2017-11-04T15:41:32.878Z,7.33
2017-11-04T15:45:41.411Z,7.07
2017-11-04T15:49:53.581Z,7.20
2017-11-04T15:53:23.357Z,6.77
2017-11-04T15:57:27.747Z,6.60
2017-11-04T16:00:59.377Z,7.07
2017-11-04T16:04:27.101Z,6.90
2017-11-04T16:07:53.359Z,6.53
2017-11-04T16:11:21.325Z,7.20
2017-11-04T16:14:47.973Z,7.03
2017-11-04T16:21:44.483Z,6.00
2017-11-04T16:25:10.577Z,5.67
2017-11-04T16:28:37.753Z,5.60
2017-11-04T16:32:06.805Z,5.70
2017-11-04T16:35:33.822Z,5.43
2017-11-04T16:39:00.275Z,5.30
2017-11-04T16:42:27.375Z,5.63
2017-11-04T16:46:00.127Z,4.80
2017-11-04T16:49:31.592Z,6.43
2017-11-04T16:52:57.748Z,5.27
2017-11-04T16:56:24.779Z,5.17
2017-11-04T17:03:22.195Z,5.00
2017-11-04T17:06:49.164Z,4.37
2017-11-04T17:10:17.419Z,5.27
2017-11-04T17:13:45.030Z,5.07
2017-11-04T17:17:12.277Z,4.90
2017-11-04T17:20:38.860Z,4.40
2017-11-04T17:24:05.522Z,5.07
2017-11-04T17:27:32.449Z,4.47
2017-11-04T17:30:59.189Z,4.60
2017-11-04T17:34:25.783Z,5.80
2017-11-04T17:37:53.240Z,4.70
2017-11-04T17:44:51.492Z,4.83
2017-11-04T17:48:19.074Z,4.70
2017-11-04T17:51:45.589Z,4.60
2017-11-04T17:55:12.493Z,4.50
2017-11-04T17:58:39.698Z,4.40
2017-11-04T18:02:06.111Z,5.27
2017-11-04T18:09:08.915Z,4.90
2017-11-04T18:12:35.702Z,4.97
2017-11-04T18:16:04.716Z,4.20
2017-11-04T18:19:31.467Z,5.47
2017-11-04T18:23:02.219Z,5.00
2017-11-04T18:26:34.121Z,4.93
2017-11-04T18:30:01.626Z,5.30
2017-11-04T18:33:32.606Z,5.30
2017-11-04T18:36:58.884Z,5.40
2017-11-04T18:40:26.318Z,5.47
2017-11-04T18:43:53.464Z,4.43
2017-11-04T18:47:19.450Z,4.57
2017-11-04T18:50:46.741Z,4.90
2017-11-04T18:54:13.891Z,5.57
2017-11-04T18:57:40.994Z,5.47
2017-11-04T19:01:07.741Z,5.43
2017-11-04T19:04:35.783Z,5.17
2017-11-04T19:08:02.494Z,4.60
2017-11-04T19:11:29.196Z,5.60
2017-11-04T19:14:56.568Z,6.23
2017-11-04T19:18:25.129Z,5.40
2017-11-04T19:21:51.751Z,6.10
2017-11-04T19:25:19.645Z,5.20
2017-11-04T19:28:46.756Z,5.47
2017-11-04T19:32:14.288Z,5.30
2017-11-04T19:35:41.973Z,5.80
2017-11-04T19:39:09.193Z,6.40
2017-11-04T19:42:36.104Z,6.20
2017-11-04T19:46:04.065Z,5.77
2017-11-04T19:49:31.031Z,5.37
2017-11-04T19:52:58.514Z,5.93
2017-11-04T19:56:25.761Z,6.00
2017-11-04T19:59:53.620Z,5.13
2017-11-04T20:03:20.175Z,5.37
2017-11-04T20:06:47.039Z,5.60
2017-11-04T20:10:14.503Z,5.27
2017-11-04T20:13:42.027Z,5.27
2017-11-04T20:17:09.323Z,5.67
2017-11-04T20:20:36.703Z,5.10
2017-11-04T20:24:03.492Z,4.90
2017-11-04T20:27:30.664Z,4.73
2017-11-04T20:30:57.717Z,5.07
2017-11-04T20:34:24.117Z,5.40
2017-11-04T20:37:51.033Z,4.90
2017-11-04T20:41:19.699Z,4.87
2017-11-04T20:44:46.484Z,4.70
2017-11-04T20:48:17.795Z,4.40
2017-11-04T20:51:44.425Z,5.20
2017-11-04T20:55:11.145Z,4.47
2017-11-04T20:58:38.404Z,5.10
2017-11-04T21:02:05.032Z,5.10
2017-11-04T21:05:31.601Z,5.50
2017-11-04T21:08:58.515Z,4.80
2017-11-04T21:12:26.724Z,5.83
2017-11-04T21:15:54.232Z,5.00
2017-11-04T21:19:21.435Z,4.30
2017-11-04T21:22:50.130Z,5.50
2017-11-04T21:26:17.083Z,4.77
2017-11-04T21:29:44.123Z,6.70
2017-11-04T21:33:11.296Z,5.10
2017-11-04T21:36:39.624Z,5.07
2017-11-04T21:40:06.275Z,5.03
2017-11-04T21:43:32.404Z,4.93
2017-11-04T21:46:58.994Z,5.40
2017-11-04T21:50:25.809Z,4.53
2017-11-04T21:53:52.041Z,5.20
2017-11-04T21:57:19.913Z,5.03
2017-11-04T22:00:46.946Z,5.70
2017-11-04T22:04:14.068Z,4.47
2017-11-04T22:07:40.791Z,4.30
2017-11-04T22:11:07.675Z,4.50
2017-11-04T22:14:35.829Z,4.80
2017-11-04T22:18:02.902Z,5.50
2017-11-04T22:21:29.567Z,4.20
2017-11-04T22:24:57.080Z,4.77
2017-11-04T22:28:28.069Z,4.80
2017-11-04T22:31:59.688Z,4.50
2017-11-04T22:35:25.688Z,4.67
2017-11-04T22:38:57.034Z,4.60
2017-11-04T22:42:23.730Z,5.40
2017-11-04T22:45:50.558Z,4.33
2017-11-04T22:49:19.527Z,4.00
2017-11-04T22:52:45.752Z,4.00
2017-11-04T22:56:11.723Z,4.20
2017-11-04T22:59:41.214Z,4.03
2017-11-04T23:03:07.786Z,4.53
2017-11-04T23:06:34.519Z,4.10
2017-11-04T23:10:02.103Z,4.37
2017-11-04T23:13:28.717Z,4.00
2017-11-04T23:16:54.693Z,4.10
2017-11-04T23:20:20.703Z,5.07
2017-11-04T23:23:47.199Z,4.10
2017-11-04T23:27:14.095Z,4.20
2017-11-04T23:30:41.847Z,4.33
2017-11-04T23:34:09.744Z,4.20
2017-11-04T23:37:36.794Z,3.90
2017-11-04T23:41:02.755Z,4.00
2017-11-04T23:44:30.123Z,3.70
2017-11-04T23:47:56.782Z,4.47
2017-11-04T23:51:23.785Z,4.10
2017-11-04T23:54:50.795Z,3.50
2017-11-04T23:58:18.227Z,4.00
